Time;durP1;ratioP1;P1;durP2;ratioP2;P2;SDS_P1;SDS_P2;PMS_P1;PMS_P2;Temp;Humidity;BMP_temperature;BMP_pressure;BME280_temperature;BME280_humidity;BME280_pressure;Samples;Min_cycle;Max_cycle;Signal;HPM_P1;HPM_P2
2021/08/28 00:02:32;;;;;;;0.70;0.70;;;;;;;12.48;100.00;101029.88;4988919;28;20050;-83
2021/08/28 00:05:08;;;;;;;1.10;0.60;;;;;;;12.42;100.00;101035.38;4992658;28;20062;-83
2021/08/28 00:07:41;;;;;;;0.50;0.50;;;;;;;12.42;100.00;101038.09;4982897;28;20406;-84
2021/08/28 00:10:11;;;;;;;1.05;0.68;;;;;;;12.35;100.00;101023.16;4980195;28;20065;-83
2021/08/28 00:12:39;;;;;;;0.73;0.60;;;;;;;12.36;100.00;101031.06;4983617;28;20054;-84
2021/08/28 00:15:12;;;;;;;0.63;0.63;;;;;;;12.35;100.00;101032.16;4982636;28;20059;-85
2021/08/28 00:17:46;;;;;;;0.55;0.55;;;;;;;12.33;100.00;101039.81;4980256;28;20422;-84
2021/08/28 00:20:20;;;;;;;1.85;0.70;;;;;;;12.30;100.00;101029.44;4977549;28;20093;-84
2021/08/28 00:22:54;;;;;;;0.52;0.40;;;;;;;12.33;100.00;101028.91;4973820;28;20494;-84
2021/08/28 00:25:27;;;;;;;1.08;0.50;;;;;;;12.33;100.00;101030.81;4986422;28;20051;-84
2021/08/28 00:27:55;;;;;;;0.43;0.40;;;;;;;12.35;100.00;101032.16;4977379;28;20054;-83
2021/08/28 00:30:24;;;;;;;0.63;0.50;;;;;;;12.35;100.00;101025.88;4989462;28;20058;-84
2021/08/28 00:33:09;;;;;;;1.02;0.40;;;;;;;12.29;100.00;101019.66;4990951;28;20051;-83
2021/08/28 00:35:43;;;;;;;0.65;0.65;;;;;;;12.31;100.00;101027.56;4990751;28;20049;-84
2021/08/28 00:38:13;;;;;;;0.52;0.52;;;;;;;12.30;100.00;101017.72;4993847;28;20050;-83
2021/08/28 00:40:41;;;;;;;1.42;0.55;;;;;;;12.32;100.00;101021.81;4993380;28;20062;-83
2021/08/28 00:43:10;;;;;;;0.65;0.60;;;;;;;12.30;100.00;101024.00;4984037;28;20102;-83
2021/08/28 00:45:45;;;;;;;0.60;0.60;;;;;;;12.30;100.00;101025.91;4987461;28;20038;-83
2021/08/28 00:48:18;;;;;;;0.60;0.60;;;;;;;12.24;100.00;101025.94;4984753;28;20411;-84
2021/08/28 00:50:52;;;;;;;0.50;0.50;;;;;;;12.24;100.00;101022.41;4981437;28;20498;-83
2021/08/28 00:53:21;;;;;;;0.50;0.50;;;;;;;12.24;100.00;101017.75;4989330;28;20055;-83
2021/08/28 00:55:54;;;;;;;0.93;0.70;;;;;;;12.25;100.00;101021.31;4989211;28;20533;-83
2021/08/28 00:58:22;;;;;;;0.68;0.68;;;;;;;12.24;100.00;101019.69;4978350;28;20061;-83
2021/08/28 01:01:02;;;;;;;0.60;0.60;;;;;;;12.21;100.00;101014.78;4987840;28;20054;-83
2021/08/28 01:03:36;;;;;;;1.20;0.70;;;;;;;12.23;100.00;101027.03;4982621;28;20065;-84
2021/08/28 01:06:15;;;;;;;0.60;0.60;;;;;;;12.20;100.00;101013.97;4980154;28;20043;-83
2021/08/28 01:09:05;;;;;;;0.70;0.70;;;;;;;12.24;100.00;101027.88;4991293;28;20069;-83
2021/08/28 01:12:02;;;;;;;1.30;0.75;;;;;;;12.17;100.00;101021.91;4991097;28;20077;-83
2021/08/28 01:14:36;;;;;;;0.73;0.70;;;;;;;12.17;100.00;101032.81;4980109;28;20498;-84
2021/08/28 01:17:12;;;;;;;1.38;0.75;;;;;;;12.18;100.00;101037.16;4984617;28;20058;-83
2021/08/28 01:19:59;;;;;;;0.60;0.60;;;;;;;12.18;100.00;101034.44;4992296;28;20057;-83
2021/08/28 01:22:50;;;;;;;2.08;0.70;;;;;;;12.22;100.00;101038.22;4984042;28;20061;-84
2021/08/28 01:25:54;;;;;;;0.65;0.65;;;;;;;12.15;100.00;101021.34;4988072;28;20054;-83
2021/08/28 01:28:39;;;;;;;0.80;0.70;;;;;;;12.20;100.00;101037.72;4987618;28;20050;-83
2021/08/28 01:31:16;;;;;;;0.80;0.68;;;;;;;12.21;100.00;101033.88;4986887;28;20073;-84
2021/08/28 01:33:52;;;;;;;0.90;0.90;;;;;;;12.19;100.00;101042.38;4991934;28;20386;-84
2021/08/28 01:36:26;;;;;;;1.05;0.80;;;;;;;12.20;100.00;101040.44;4979548;28;20095;-84
2021/08/28 01:39:14;;;;;;;1.88;0.65;;;;;;;12.18;100.00;101037.16;4991263;28;20065;-84
2021/08/28 01:42:00;;;;;;;0.70;0.70;;;;;;;12.19;100.00;101039.63;4984820;28;20050;-83
2021/08/28 01:44:35;;;;;;;0.80;0.80;;;;;;;12.18;100.00;101045.34;4988435;28;20046;-84
2021/08/28 01:47:11;;;;;;;0.70;0.70;;;;;;;12.17;100.00;101044.53;4985574;28;20051;-84
2021/08/28 01:49:41;;;;;;;0.70;0.70;;;;;;;12.17;100.00;101049.19;4986691;28;20530;-83
2021/08/28 01:52:16;;;;;;;0.80;0.80;;;;;;;12.18;100.00;101054.38;4983868;28;20054;-84
2021/08/28 01:54:50;;;;;;;1.27;0.80;;;;;;;12.20;100.00;101045.91;4986793;28;20054;-83
2021/08/28 01:57:32;;;;;;;0.68;0.68;;;;;;;12.20;100.00;101056.81;4982191;28;20047;-83
2021/08/28 02:00:24;;;;;;;0.70;0.70;;;;;;;12.14;100.00;101060.66;4989393;28;20057;-83
2021/08/28 02:02:59;;;;;;;0.70;0.70;;;;;;;12.11;100.00;101045.69;4986370;28;20047;-84
2021/08/28 02:05:37;;;;;;;1.08;0.90;;;;;;;12.14;100.00;101050.56;4987042;28;20054;-84
2021/08/28 02:08:21;;;;;;;0.60;0.60;;;;;;;12.20;100.00;101052.16;4981770;28;20061;-84
2021/08/28 02:10:56;;;;;;;1.00;0.90;;;;;;;12.14;100.00;101045.09;4984999;28;20038;-84
2021/08/28 02:13:31;;;;;;;0.98;0.88;;;;;;;12.24;100.00;101050.50;4984424;28;20045;-83
2021/08/28 02:16:07;;;;;;;1.13;0.70;;;;;;;12.26;100.00;101055.66;4983698;28;20051;-83
2021/08/28 02:18:44;;;;;;;0.70;0.70;;;;;;;12.24;100.00;101053.22;4986442;28;20491;-83
2021/08/28 02:21:25;;;;;;;0.80;0.80;;;;;;;12.26;100.00;101050.22;4989424;28;20077;-83
2021/08/28 02:24:02;;;;;;;2.15;0.95;;;;;;;12.27;100.00;101048.31;4984757;28;20301;-83
2021/08/28 02:26:47;;;;;;;0.80;0.80;;;;;;;12.24;100.00;101047.75;4984972;28;20542;-84
2021/08/28 02:29:29;;;;;;;0.80;0.80;;;;;;;12.28;100.00;101050.75;4984251;28;20131;-84
2021/08/28 02:32:04;;;;;;;0.98;0.93;;;;;;;12.23;100.00;101040.66;4987448;28;20598;-83
2021/08/28 02:34:50;;;;;;;1.17;1.08;;;;;;;12.25;100.00;101035.75;4978467;28;20058;-83
2021/08/28 02:37:25;;;;;;;1.13;1.02;;;;;;;12.30;100.00;101037.63;4980326;28;20506;-84
2021/08/28 02:39:55;;;;;;;1.10;1.00;;;;;;;12.29;100.00;101035.19;4988951;28;20521;-84
2021/08/28 02:42:29;;;;;;;1.35;1.10;;;;;;;12.28;100.00;101030.81;4990116;28;20056;-83
2021/08/28 02:45:04;;;;;;;1.55;1.10;;;;;;;12.32;100.00;101037.34;4988831;28;20046;-83
2021/08/28 02:47:33;;;;;;;1.35;1.20;;;;;;;12.29;100.00;101041.47;4989219;28;20050;-84
2021/08/28 02:50:09;;;;;;;1.25;1.10;;;;;;;12.25;100.00;101027.56;4981501;28;20054;-84
2021/08/28 02:52:53;;;;;;;1.15;1.05;;;;;;;12.28;100.00;101020.75;4982875;28;20046;-84
2021/08/28 02:55:32;;;;;;;1.48;1.00;;;;;;;12.29;100.00;101021.53;4986483;28;20050;-84
2021/08/28 02:58:07;;;;;;;1.45;1.13;;;;;;;12.28;100.00;101028.94;4979641;28;20046;-83
2021/08/28 03:00:43;;;;;;;1.17;1.08;;;;;;;12.28;100.00;101028.94;4983984;28;20062;-84
2021/08/28 03:03:14;;;;;;;1.42;1.20;;;;;;;12.30;100.00;101034.91;4983015;28;20058;-84
2021/08/28 03:05:51;;;;;;;2.00;1.17;;;;;;;12.31;100.00;101039.28;4982100;28;20382;-84
2021/08/28 03:08:27;;;;;;;1.30;1.20;;;;;;;12.31;100.00;101033.81;4990817;28;20050;-84
2021/08/28 03:11:03;;;;;;;1.40;1.30;;;;;;;12.33;100.00;101031.63;4990203;28;20057;-84
2021/08/28 03:13:32;;;;;;;1.58;1.23;;;;;;;12.33;100.00;101039.00;4978015;28;20062;-83
2021/08/28 03:16:06;;;;;;;2.17;1.58;;;;;;;12.27;100.00;101037.41;4983829;28;20038;-84
2021/08/28 03:18:41;;;;;;;1.60;1.50;;;;;;;12.31;100.00;101033.81;4981766;28;20521;-84
2021/08/28 03:21:17;;;;;;;2.50;1.60;;;;;;;12.29;100.00;101037.91;4978754;28;20107;-83
2021/08/28 03:23:51;;;;;;;1.83;1.48;;;;;;;12.26;100.00;101031.09;4990331;28;20047;-83
2021/08/28 03:26:22;;;;;;;1.77;1.52;;;;;;;12.33;100.00;101033.53;4982092;28;20042;-84
2021/08/28 03:28:58;;;;;;;2.17;1.52;;;;;;;12.33;100.00;101030.81;4988854;28;20054;-84
2021/08/28 03:31:32;;;;;;;1.73;1.50;;;;;;;12.33;100.00;101030.81;4978110;28;20074;-84
2021/08/28 03:34:07;;;;;;;2.00;1.70;;;;;;;12.28;100.00;101028.94;4977648;28;20552;-84
2021/08/28 03:36:43;;;;;;;2.15;1.70;;;;;;;12.32;100.00;101035.44;4989897;28;20050;-84
2021/08/28 03:39:16;;;;;;;2.08;1.60;;;;;;;12.32;100.00;101038.19;4985786;28;20054;-86
2021/08/28 03:41:47;;;;;;;2.45;1.55;;;;;;;12.34;100.00;101043.34;4988126;28;20065;-85
2021/08/28 03:44:20;;;;;;;1.80;1.50;;;;;;;12.32;100.00;101040.91;4977242;28;20055;-86
2021/08/28 03:46:54;;;;;;;2.22;1.63;;;;;;;12.34;100.00;101035.16;4997126;28;20050;-85
2021/08/28 03:49:22;;;;;;;2.42;1.80;;;;;;;12.31;100.00;101033.00;4972655;28;20059;-85
2021/08/28 03:51:57;;;;;;;2.35;1.80;;;;;;;12.40;100.00;101025.84;4979970;28;20050;-85
2021/08/28 03:54:31;;;;;;;2.42;1.80;;;;;;;12.29;100.00;101030.56;4989332;28;20050;-85
2021/08/28 03:57:04;;;;;;;2.92;1.60;;;;;;;12.34;100.00;101029.72;4985985;28;20058;-84
2021/08/28 03:59:37;;;;;;;2.53;1.83;;;;;;;12.41;100.00;101033.75;5004824;28;20046;-84
2021/08/28 04:02:16;;;;;;;3.90;1.70;;;;;;;12.33;100.00;101045.28;4986281;28;20066;-85
2021/08/28 04:04:52;;;;;;;1.88;1.40;;;;;;;12.27;100.00;101027.28;4984696;28;20046;-85
2021/08/28 04:07:22;;;;;;;1.85;1.50;;;;;;;12.41;100.00;101038.38;4989875;28;20057;-85
2021/08/28 04:10:00;;;;;;;2.30;1.70;;;;;;;12.35;100.00;101040.34;4984073;28;20047;-85
2021/08/28 04:12:34;;;;;;;4.38;1.70;;;;;;;12.38;100.00;101026.13;4984608;28;20494;-85
2021/08/28 04:15:04;;;;;;;1.92;1.45;;;;;;;12.44;100.00;101040.53;4998466;28;20058;-85
2021/08/28 04:17:57;;;;;;;2.03;1.65;;;;;;;12.34;100.00;101048.81;4990759;28;20047;-85
2021/08/28 04:20:33;;;;;;;1.65;1.40;;;;;;;12.38;100.00;101041.69;4979407;28;20069;-84
2021/08/28 04:23:11;;;;;;;2.53;1.60;;;;;;;12.39;100.00;101046.88;4988293;28;20069;-87
2021/08/28 04:26:33;;;;;;;2.63;1.58;;;;;;;12.35;100.00;101045.78;4991014;28;20047;-86
2021/08/28 04:29:06;;;;;;;3.92;1.60;;;;;;;12.33;100.00;101048.00;4985966;28;20054;-86
2021/08/28 04:31:39;;;;;;;1.95;1.48;;;;;;;12.34;100.00;101046.88;4989953;28;20512;-86
2021/08/28 04:34:13;;;;;;;2.03;1.30;;;;;;;12.36;100.00;101043.88;4982930;28;20050;-85
2021/08/28 04:36:46;;;;;;;1.90;1.40;;;;;;;12.40;100.00;101045.78;4983201;28;20057;-85
2021/08/28 04:39:21;;;;;;;1.58;1.40;;;;;;;12.37;100.00;101038.16;4989949;28;20050;-84
2021/08/28 04:41:51;;;;;;;2.03;1.50;;;;;;;12.37;100.00;101040.88;4989257;28;20050;-84
2021/08/28 04:44:25;;;;;;;1.75;1.48;;;;;;;12.40;100.00;101042.22;4991433;28;20406;-84
2021/08/28 04:46:58;;;;;;;3.72;1.70;;;;;;;12.40;100.00;101040.31;4979810;28;20533;-84
2021/08/28 04:49:27;;;;;;;2.90;1.67;;;;;;;12.39;100.00;101038.69;4984212;28;20073;-84
2021/08/28 04:52:13;;;;;;;2.65;1.60;;;;;;;12.39;100.00;101029.69;4986797;28;20055;-84
2021/08/28 04:54:48;;;;;;;2.33;1.73;;;;;;;12.40;100.00;101028.56;4990953;28;20050;-84
2021/08/28 04:57:21;;;;;;;2.22;1.80;;;;;;;12.38;100.00;101037.03;4984538;28;20538;-83
2021/08/28 04:59:57;;;;;;;2.78;1.80;;;;;;;12.40;100.00;101028.56;4985990;28;20054;-83
2021/08/28 05:03:06;;;;;;;2.65;1.70;;;;;;;12.43;100.00;101036.22;4989106;28;20060;-83
2021/08/28 05:05:34;;;;;;;3.78;2.20;;;;;;;12.42;100.00;101029.09;4982895;28;20047;-83
2021/08/28 05:08:08;;;;;;;3.40;2.05;;;;;;;12.46;100.00;101032.91;4989704;28;20061;-83
2021/08/28 05:10:43;;;;;;;3.28;2.10;;;;;;;12.52;100.00;101028.22;4987613;28;20077;-82
2021/08/28 05:13:16;;;;;;;3.33;2.00;;;;;;;12.48;100.00;101030.69;4988818;28;20050;-85
2021/08/28 05:15:45;;;;;;;3.05;2.03;;;;;;;12.64;100.00;101025.13;4988184;28;20054;-82
2021/08/28 05:18:18;;;;;;;2.90;2.00;;;;;;;12.59;100.00;101032.25;4989307;28;20038;-82
2021/08/28 05:20:54;;;;;;;3.63;2.35;;;;;;;12.54;100.00;101026.84;4978381;28;20054;-83
2021/08/28 05:23:46;;;;;;;5.07;2.22;;;;;;;12.61;100.00;101040.16;4997374;28;20429;-84
2021/08/28 05:26:37;;;;;;;4.75;2.50;;;;;;;12.73;100.00;101039.78;4994087;28;20043;-83
2021/08/28 05:29:10;;;;;;;4.78;2.28;;;;;;;12.68;100.00;101043.38;4990583;28;20050;-83
2021/08/28 05:31:38;;;;;;;4.45;2.20;;;;;;;12.69;100.00;101047.75;4984755;28;20062;-83
2021/08/28 05:34:14;;;;;;;3.90;2.45;;;;;;;12.92;100.00;101051.63;4986291;28;20050;-83
2021/08/28 05:37:01;;;;;;;3.55;2.15;;;;;;;12.83;100.00;101052.53;4986982;28;20053;-85
2021/08/28 05:39:48;;;;;;;5.10;2.33;;;;;;;12.88;100.00;101056.03;4992048;28;20069;-84
2021/08/28 05:42:26;;;;;;;3.13;2.33;;;;;;;12.76;100.00;101050.16;4990260;28;20050;-84
2021/08/28 05:44:55;;;;;;;2.80;1.92;;;;;;;12.80;100.00;101042.19;4996536;28;20074;-84
2021/08/28 05:47:28;;;;;;;4.35;2.30;;;;;;;12.97;100.00;101061.72;4999700;28;20070;-83
2021/08/28 05:50:04;;;;;;;2.92;2.08;;;;;;;13.03;100.00;101057.84;4992141;28;20046;-83
2021/08/28 05:52:32;;;;;;;3.97;2.20;;;;;;;12.90;100.00;101061.25;4993111;28;20061;-83
2021/08/28 05:55:10;;;;;;;2.83;1.80;;;;;;;13.05;100.00;101063.00;4993032;28;20050;-84
2021/08/28 05:57:43;;;;;;;1.90;1.70;;;;;;;12.97;100.00;101069.91;4991024;28;20043;-83
2021/08/28 06:00:14;;;;;;;2.70;1.80;;;;;;;12.98;100.00;101054.34;4991991;28;20050;-85
2021/08/28 06:02:46;;;;;;;2.47;1.80;;;;;;;12.92;100.00;101062.56;4989803;28;20418;-85
2021/08/28 06:05:25;;;;;;;2.90;1.60;;;;;;;13.04;100.00;101067.66;4989420;28;20054;-85
2021/08/28 06:08:28;;;;;;;3.08;1.80;;;;;;;12.98;100.00;101054.34;5009701;28;20750;-86
2021/08/28 06:11:22;;;;;;;2.50;1.67;;;;;;;13.12;100.00;101068.97;4985983;28;20065;-85
2021/08/28 06:14:19;;;;;;;2.55;1.80;;;;;;;12.96;100.00;101072.94;4997012;28;20066;-84
2021/08/28 06:16:54;;;;;;;2.05;1.67;;;;;;;12.98;100.00;101070.72;4986882;28;20050;-86
2021/08/28 06:19:31;;;;;;;2.08;1.70;;;;;;;12.98;100.00;101068.81;4988473;28;20054;-85
2021/08/28 06:22:04;;;;;;;2.15;1.80;;;;;;;12.80;100.00;101070.34;4991207;28;20065;-86
2021/08/28 06:24:38;;;;;;;2.90;1.90;;;;;;;13.16;100.00;101077.41;4987983;28;20046;-86
2021/08/28 06:27:20;;;;;;;2.53;1.70;;;;;;;13.05;100.00;101079.41;4985119;28;20487;-85
2021/08/28 06:29:55;;;;;;;2.40;1.83;;;;;;;13.13;100.00;101075.25;4982723;28;20053;-84
2021/08/28 06:32:24;;;;;;;2.88;2.10;;;;;;;12.96;100.00;101072.94;4988778;28;20061;-85
2021/08/28 06:34:57;;;;;;;3.47;2.40;;;;;;;13.03;100.00;101065.22;4983484;28;20061;-86
2021/08/28 06:37:37;;;;;;;2.97;2.22;;;;;;;12.96;100.00;101059.28;4991918;28;20055;-84
2021/08/28 06:40:19;;;;;;;4.05;2.70;;;;;;;13.22;100.00;101068.06;5000584;28;20417;-85
2021/08/28 06:43:11;;;;;;;3.38;2.33;;;;;;;13.32;100.00;101087.09;4987974;28;20054;-86
2021/08/28 06:46:07;;;;;;;3.65;2.42;;;;;;;13.38;100.00;101082.41;4981024;28;20054;-86
2021/08/28 06:49:09;;;;;;;3.42;2.20;;;;;;;13.34;100.00;101075.84;4992906;28;20050;-86
2021/08/28 06:52:02;;;;;;;3.80;2.28;;;;;;;13.45;100.00;101085.63;4990067;28;20533;-87
2021/08/28 06:54:48;;;;;;;3.03;2.10;;;;;;;13.43;100.00;101082.38;4987915;28;20061;-86
2021/08/28 06:57:40;;;;;;;4.05;2.10;;;;;;;13.51;100.00;101080.94;4997667;28;20061;-85
2021/08/28 07:00:23;;;;;;;3.33;2.00;;;;;;;13.36;100.00;101084.63;4992258;28;20637;-87
2021/08/28 07:03:16;;;;;;;3.25;2.20;;;;;;;13.31;100.00;101077.25;4995440;28;20065;-86
2021/08/28 07:05:50;;;;;;;3.13;2.25;;;;;;;13.41;100.00;101073.66;4987805;28;20049;-87
2021/08/28 07:08:24;;;;;;;3.10;2.30;;;;;;;13.43;100.00;101074.97;4985994;28;20046;-84
2021/08/28 07:11:27;;;;;;;2.63;1.90;;;;;;;13.40;100.00;101081.03;4986616;28;20072;-88
2021/08/28 07:14:00;;;;;;;4.07;2.20;;;;;;;13.21;100.00;101069.16;4989581;28;20050;-87
2021/08/28 07:16:33;;;;;;;4.65;2.05;;;;;;;13.14;100.00;101074.16;4991290;28;20054;-86
2021/08/28 07:19:03;;;;;;;2.80;1.98;;;;;;;13.41;100.00;101085.38;4987989;28;20113;-87
2021/08/28 07:22:02;;;;;;;2.42;1.77;;;;;;;13.57;100.00;101086.03;4983203;28;20406;-84
2021/08/28 07:24:35;;;;;;;3.10;1.70;;;;;;;13.51;100.00;101089.94;4984047;28;20058;-85
2021/08/28 07:27:12;;;;;;;2.10;1.50;;;;;;;13.46;100.00;101070.84;4985245;28;20076;-83
2021/08/28 07:30:18;;;;;;;1.85;1.42;;;;;;;13.55;100.00;101084.72;4983871;28;20394;-85
2021/08/28 07:32:52;;;;;;;2.22;1.58;;;;;;;13.41;100.00;101082.66;4988221;28;20062;-85
2021/08/28 07:35:28;;;;;;;1.95;1.50;;;;;;;13.58;100.00;101081.38;4998497;28;20046;-83
2021/08/28 07:38:02;;;;;;;2.20;1.60;;;;;;;13.44;100.00;101093.00;4987915;28;20050;-86
2021/08/28 07:40:31;;;;;;;2.00;1.30;;;;;;;13.53;100.00;101079.50;4989788;28;20057;-87
2021/08/28 07:43:00;;;;;;;1.60;1.30;;;;;;;13.45;100.00;101082.91;4990057;28;20379;-87
2021/08/28 07:45:34;;;;;;;1.80;1.40;;;;;;;13.15;100.00;101045.72;4990498;28;20065;-86
2021/08/28 07:48:12;;;;;;;1.85;1.38;;;;;;;13.51;100.00;101084.47;4982381;28;20065;-83
2021/08/28 07:50:42;;;;;;;2.20;1.30;;;;;;;13.55;100.00;101088.25;4987300;28;20046;-84
2021/08/28 07:53:16;;;;;;;1.45;1.27;;;;;;;13.56;100.00;101062.53;4983389;28;20410;-83
2021/08/28 07:55:54;;;;;;;1.30;1.20;;;;;;;13.53;100.00;101078.72;4982378;28;20054;-84
2021/08/28 07:58:28;;;;;;;1.55;1.25;;;;;;;13.61;100.00;101084.34;4989380;28;20050;-84
2021/08/28 08:01:05;;;;;;;1.40;1.20;;;;;;;13.84;100.00;101073.72;5003081;28;20051;-86
2021/08/28 08:03:44;;;;;;;1.95;1.40;;;;;;;13.70;100.00;101080.97;4986124;28;20521;-84
2021/08/28 08:06:21;;;;;;;1.58;1.27;;;;;;;13.91;100.00;101084.31;4986836;28;20057;-84
2021/08/28 08:09:08;;;;;;;1.35;1.00;;;;;;;13.94;100.00;101089.19;4976820;28;20054;-87
2021/08/28 08:12:27;;;;;;;1.42;1.20;;;;;;;13.81;100.00;101089.88;4998412;28;20061;-86
2021/08/28 08:15:19;;;;;;;1.48;1.20;;;;;;;13.71;100.00;101088.91;4993522;28;20394;-84
2021/08/28 08:18:14;;;;;;;1.52;1.30;;;;;;;13.74;100.00;101091.06;4985006;28;20057;-83
2021/08/28 08:21:04;;;;;;;1.45;1.20;;;;;;;13.87;100.00;101086.00;4990112;28;20053;-83
2021/08/28 08:23:50;;;;;;;1.83;1.20;;;;;;;13.68;100.00;101080.47;4988185;28;20552;-83
2021/08/28 08:26:42;;;;;;;1.25;1.00;;;;;;;13.80;100.00;101085.53;4994764;28;20062;-85
2021/08/28 08:29:38;;;;;;;1.90;1.17;;;;;;;13.85;100.00;101086.28;4977222;28;20059;-84
2021/08/28 08:32:23;;;;;;;1.20;1.08;;;;;;;13.98;100.00;101092.16;4986929;28;20057;-85
2021/08/28 08:34:53;;;;;;;1.45;1.17;;;;;;;13.89;100.00;101091.97;4988835;28;20050;-87
2021/08/28 08:37:33;;;;;;;1.10;0.93;;;;;;;13.82;100.00;101097.78;4994891;28;20493;-85
2021/08/28 08:40:03;;;;;;;1.00;0.90;;;;;;;13.95;100.00;101099.03;4985001;28;20055;-85
2021/08/28 08:42:41;;;;;;;1.70;1.17;;;;;;;14.00;100.00;101093.47;4986449;28;20061;-87
2021/08/28 08:45:17;;;;;;;1.20;1.10;;;;;;;14.00;100.00;101095.41;4986890;28;20410;-86
2021/08/28 08:47:46;;;;;;;1.73;1.20;;;;;;;14.05;100.00;101096.16;5002418;28;20051;-86
2021/08/28 08:50:20;;;;;;;1.67;1.20;;;;;;;13.99;100.00;101097.34;4988554;28;20042;-86
2021/08/28 08:52:55;;;;;;;1.13;1.00;;;;;;;14.05;100.00;101098.09;4994597;28;20065;-86
2021/08/28 08:55:42;;;;;;;1.20;1.00;;;;;;;14.37;100.00;101091.88;4992567;28;20069;-86
2021/08/28 08:58:18;;;;;;;2.03;1.00;;;;;;;14.23;100.00;101093.75;5005236;28;20046;-86
2021/08/28 09:01:09;;;;;;;1.27;0.90;;;;;;;14.28;100.00;101097.22;4991328;28;20070;-85
2021/08/28 09:03:38;;;;;;;1.23;0.88;;;;;;;14.34;100.00;101099.91;4990939;28;20054;-87
2021/08/28 09:06:12;;;;;;;2.38;1.00;;;;;;;14.63;100.00;101099.78;4987263;28;20482;-88
2021/08/28 09:08:48;;;;;;;2.45;0.90;;;;;;;14.76;100.00;101098.19;5005716;28;20704;-84
2021/08/28 09:11:25;;;;;;;1.30;0.85;;;;;;;14.53;100.00;101097.13;4984733;28;20046;-88
2021/08/28 09:14:18;;;;;;;0.60;0.60;;;;;;;14.57;100.00;101096.28;4984238;28;20058;-86
2021/08/28 09:16:52;;;;;;;0.68;0.68;;;;;;;14.62;100.00;101104.44;4986358;28;20070;-87
2021/08/28 09:19:35;;;;;;;0.60;0.60;;;;;;;14.53;100.00;101110.84;4993116;28;20414;-85
2021/08/28 09:22:09;;;;;;;0.57;0.57;;;;;;;14.58;100.00;101102.56;4992053;28;20264;-86
2021/08/28 09:24:43;;;;;;;0.60;0.60;;;;;;;14.60;100.00;101108.56;4986847;28;20061;-86
2021/08/28 09:27:13;;;;;;;0.40;0.40;;;;;;;14.61;100.00;101102.78;4990329;28;20470;-87
2021/08/28 09:29:47;;;;;;;1.05;0.55;;;;;;;14.55;100.00;101098.47;4990109;28;20475;-85
2021/08/28 09:32:15;;;;;;;0.82;0.50;;;;;;;14.56;100.00;101102.03;4989305;28;20414;-86
2021/08/28 09:34:46;;;;;;;0.50;0.50;;;;;;;14.43;100.00;101093.47;4989409;28;20053;-87
2021/08/28 09:37:16;;;;;;;0.60;0.50;;;;;;;14.47;100.00;101099.13;4986570;28;20134;-85
2021/08/28 09:39:49;;;;;;;0.50;0.50;;;;;;;14.50;100.00;101104.06;4989355;28;20727;-86
2021/08/28 09:42:20;;;;;;;0.63;0.52;;;;;;;14.51;100.00;101102.91;4990136;28;20042;-86
2021/08/28 09:44:52;;;;;;;0.98;0.50;;;;;;;14.39;100.00;101106.13;4988521;28;20058;-85
2021/08/28 09:47:29;;;;;;;1.35;0.50;;;;;;;14.49;100.00;101104.34;4987098;28;20066;-87
2021/08/28 09:50:02;;;;;;;0.50;0.50;;;;;;;14.49;100.00;101107.09;4987141;28;20053;-86
2021/08/28 09:52:32;;;;;;;0.45;0.45;;;;;;;14.59;100.00;101107.72;4994402;28;20042;-83
2021/08/28 09:55:06;;;;;;;0.70;0.65;;;;;;;14.53;100.00;101105.34;4995345;28;20050;-83
2021/08/28 09:57:40;;;;;;;0.88;0.50;;;;;;;14.66;100.00;101103.84;4990335;28;20042;-82
2021/08/28 10:00:16;;;;;;;0.50;0.50;;;;;;;14.54;100.00;101083.19;4987923;28;20693;-84
2021/08/28 10:02:58;;;;;;;0.47;0.47;;;;;;;14.60;100.00;101101.16;4990117;28;20057;-85
2021/08/28 10:05:28;;;;;;;1.05;0.60;;;;;;;14.56;100.00;101102.03;4987364;28;20046;-84
2021/08/28 10:08:05;;;;;;;0.70;0.50;;;;;;;14.56;100.00;101099.31;4987799;28;20045;-80
2021/08/28 10:10:44;;;;;;;0.52;0.50;;;;;;;14.71;100.00;101115.53;4989346;28;20042;-84
2021/08/28 10:13:21;;;;;;;2.47;1.88;;;;;;;14.77;100.00;101097.91;4987053;28;20046;-85
2021/08/28 10:15:51;;;;;;;0.65;0.65;;;;;;;14.81;100.00;101111.03;4989727;28;20057;-82
2021/08/28 10:18:21;;;;;;;0.80;0.63;;;;;;;14.82;100.00;101110.72;4984793;28;20062;-79
2021/08/28 10:20:57;;;;;;;0.50;0.50;;;;;;;14.68;100.00;101109.84;4985194;28;20054;-81
2021/08/28 10:23:35;;;;;;;0.57;0.40;;;;;;;14.41;100.00;101114.03;4987050;28;20525;-83
2021/08/28 10:26:05;;;;;;;0.80;0.50;;;;;;;14.42;100.00;101116.47;4932034;28;20058;-85
2021/08/28 10:28:41;;;;;;;0.75;0.45;;;;;;;14.42;100.00;101115.66;4984784;28;20065;-83
2021/08/28 10:31:12;;;;;;;0.95;0.40;;;;;;;14.48;100.00;101121.88;4976493;28;20058;-83
2021/08/28 10:33:49;;;;;;;0.98;0.60;;;;;;;14.55;100.00;101112.16;4979540;28;20058;-83
2021/08/28 10:36:17;;;;;;;0.52;0.50;;;;;;;14.54;100.00;101118.78;4981307;28;20058;-83
2021/08/28 10:39:20;;;;;;;0.50;0.50;;;;;;;14.83;100.00;101111.53;4978233;28;20059;-82
2021/08/28 10:41:49;;;;;;;0.50;0.50;;;;;;;14.90;100.00;101122.91;4980951;28;20516;-83
2021/08/28 10:44:18;;;;;;;2.85;2.03;;;;;;;15.12;100.00;101117.63;4977236;28;20125;-84
2021/08/28 10:46:57;;;;;;;0.80;0.80;;;;;;;15.34;100.00;101116.16;4981646;28;20062;-85
2021/08/28 10:49:35;;;;;;;0.80;0.50;;;;;;;15.17;100.00;101115.94;4980937;28;20054;-85
2021/08/28 10:52:18;;;;;;;0.40;0.40;;;;;;;15.09;100.00;101096.31;4980893;28;20050;-84
2021/08/28 10:54:55;;;;;;;0.40;0.40;;;;;;;15.31;100.00;101111.28;4981154;28;20057;-82
2021/08/28 10:57:27;;;;;;;0.45;0.40;;;;;;;15.30;100.00;101109.63;4979586;28;20058;-84
2021/08/28 11:00:05;;;;;;;0.40;0.40;;;;;;;15.29;100.00;101113.53;4982752;28;20050;-83
2021/08/28 11:02:58;;;;;;;0.40;0.40;;;;;;;15.14;100.00;101109.09;4974550;28;20154;-84
2021/08/28 11:05:33;;;;;;;0.40;0.40;;;;;;;15.21;100.00;101114.22;4975863;28;20694;-82
2021/08/28 11:08:16;;;;;;;0.57;0.50;;;;;;;15.21;100.00;101120.50;4977486;28;20065;-83
2021/08/28 11:11:20;;;;;;;0.40;0.40;;;;;;;15.24;100.00;101121.81;4974100;28;20465;-85
2021/08/28 11:13:59;;;;;;;0.40;0.40;;;;;;;15.44;100.00;101117.94;4974861;28;20144;-85
2021/08/28 11:16:55;;;;;;;0.63;0.40;;;;;;;15.41;100.00;101115.75;4977922;28;20549;-84
2021/08/28 11:19:37;;;;;;;0.82;0.40;;;;;;;15.63;100.00;101123.31;4976297;28;20059;-84
2021/08/28 11:22:22;;;;;;;0.47;0.40;;;;;;;15.80;100.00;101109.03;4975942;28;20053;-83
2021/08/28 11:25:00;;;;;;;0.40;0.40;;;;;;;15.81;100.00;101116.97;4955805;28;20047;-84
2021/08/28 11:27:39;;;;;;;0.30;0.30;;;;;;;15.65;100.00;101116.41;4958108;28;20055;-84
2021/08/28 11:30:08;;;;;;;0.63;0.30;;;;;;;15.38;99.28;101113.63;4960882;28;20066;-87
2021/08/28 11:32:41;;;;;;;0.47;0.47;;;;;;;15.22;99.61;101127.63;4956267;28;20069;-82
2021/08/28 11:35:12;;;;;;;1.42;1.08;;;;;;;15.10;100.00;101116.31;4954888;28;20063;-83
2021/08/28 11:37:46;;;;;;;0.95;0.50;;;;;;;15.11;100.00;101126.16;4956943;28;20047;-83
2021/08/28 11:40:35;;;;;;;0.20;0.20;;;;;;;14.90;100.00;101129.22;4958218;28;20656;-84
2021/08/28 11:43:09;;;;;;;0.82;0.38;;;;;;;14.75;100.00;101127.53;4957436;28;20058;-83
2021/08/28 11:45:43;;;;;;;0.30;0.30;;;;;;;14.89;100.00;101124.06;4957720;28;20059;-84
2021/08/28 11:48:14;;;;;;;0.30;0.30;;;;;;;14.98;100.00;101118.69;4952305;28;20066;-83
2021/08/28 11:50:49;;;;;;;0.30;0.30;;;;;;;15.30;100.00;101124.19;4960253;28;20387;-82
2021/08/28 11:53:27;;;;;;;0.38;0.30;;;;;;;15.07;100.00;101128.69;4955267;28;20074;-84
2021/08/28 11:56:02;;;;;;;;;;;;;;;15.15;100.00;101138.16;4971619;28;20050;-82
2021/08/28 11:58:48;;;;;;;0.30;0.30;;;;;;;15.17;100.00;101127.69;4955914;28;19930;-84
2021/08/28 12:01:25;;;;;;;;;;;;;;;15.03;99.66;101127.66;4963741;28;20069;-86
2021/08/28 12:03:54;;;;;;;0.57;0.40;;;;;;;14.90;100.00;101128.41;4955279;28;20486;-84
2021/08/28 12:06:30;;;;;;;0.30;0.30;;;;;;;14.70;100.00;101127.59;4958498;28;20478;-83